Etusivu
METAR-TAF:

METAR-TAF

Lentoasemat :

Harare, Zimbabwe

Leveyspiiri: 17-55S, Pituuspiiri: 031-08E, korkeus merenpinnasta: 1479 m

Tämänhetkinen sää

Tämä raportti tehtiin 26 minuuttia sitten, kello 21.00 UTC
Tuuli 7 kn pohjoisesta/koillisesta
Lämpötila 16°C
Kosteus 42%
Ilmanpaine 1021 hPa
Näkyvyys 10 km tai enemmän
ei pilviä alle 1500 m:ssä eikä cumulonimbus-pilviä

METAR: FVHA 172100Z 03007KT CAVOK 16/03 Q1021 NOSIG

Aika: 23:26 (21:26 UTC)

Sääennuste

Tämä raportti tehtiin 5 tuntia ja 26 minuuttia sitten, kello 16.00 UTC
Ennuste voimassa 17. päivästä klo 18 UTC - 18. päivään klo 24 UTC
Tuuli 9 kn lännestä/lounaasta
Näkyvyys 10 km tai enemmän
ei pilviä alle 1500 m:ssä eikä cumulonimbus-pilviä

TAF: FVHA 171600Z 1718/1824 24009KT CAVOK

Säähavainnot ja -ennusteet yli 4000 lentoasemalta (METAR- ja TAF-raportit).

Käytössä olevat sääasemat on merkitty karttaan keltaisilla ja punaisilla pisteillä.

Aseta hiiri pisteen päälle nähdäksesi sääaseman nimen.

Klikkaa sitten nähdäksesi säähavainnot ja -ennusteet.

Kartan vaihtaminen: klikkaa mustalla rastilla varustettuja vihreitä pisteitä, niin voit zoomata sisään; viivalla varustettua vihreää pistettä, niin voit zoomata ulos tai vihreitä nuolia, niin pääset viereisille kartoille.


METAR-TAF: